Latest Coastal Weather Observations for Hobart

IDT60701

Issued at 9:12 am EST Friday 19 August 2022 (issued every 10 minutes, with the page automatically refreshed every 10 minutes)

About coastal observations | Map of coastal stations | Coastal observations for TAS | Marine services | Other Formats
Station Details ID: 094029 Name: HOBART (ELLERSLIE ROAD) Lat: -42.89 Lon: 147.33 Height: 50.5 m
Data from the previous 72 hours. | See also: Recent months at Hobart
Date/Time
EST
Wind Sea
Height
m
Swell Vis
km
Cloud Weather Temp
°C
Press
MSL
hPa
Rain since
9am
mm
Dir  Spd
kts
Gust
kts
Height
m
Period
s
Dir
19/09:03am NNW 15 27 - - - - - - - 9.6 1005.4 0.0
19/09:00am NNW 14 23 - - - - - - - 9.3 1005.5 0.2
19/08:30am N 15 24 - - - - - - - 8.8 1005.8 0.2
19/08:18am N 15 26 - - - - - - - 8.4 1005.6 0.2
19/08:00am N 10 15 - - - - - - - 8.0 1005.4 0.2
19/07:30am N 10 15 - - - - - - - 7.4 1005.6 0.2
19/07:00am N 13 20 - - - - - - - 7.4 1005.1 0.2
19/06:30am N 12 18 - - - - - - - 7.4 1004.6 0.2
19/06:00am N 13 19 - - - - - - - 7.5 1004.2 0.2
19/05:30am N 11 17 - - - - - - - 7.5 1004.1 0.2
19/05:00am NNW 15 21 - - - - - - - 7.9 1004.1 0.2
19/04:30am NNW 12 19 - - - - - - - 7.9 1003.8 0.2
19/04:00am NNW 10 13 - - - - - - - 7.7 1003.5 0.2
19/03:30am N 8 13 - - - - - - - 8.1 1003.2 0.2
19/03:00am N 9 14 - - - - - - - 8.2 1003.0 0.2
19/02:30am N 9 13 - - - - - - - 8.1 1002.4 0.2
19/02:00am N 12 19 - - - - - - - 8.1 1001.9 0.2
19/01:30am NNW 11 17 - - - - - - - 8.2 1001.9 0.2
19/01:00am NNW 13 18 - - - - - - - 8.4 1002.1 0.2
19/12:30am NW 9 14 - - - - - - - 8.4 1002.2 0.2
19/12:00am N 13 18 - - - - - - - 8.8 1001.9 0.2
 
Date/Time
EST
Wind Sea
Height
m
Swell Vis
km
Cloud Weather Temp
°C
Press
MSL
hPa
Rain since
9am
mm
Dir  Spd
kts
Gust
kts
Height
m
Period
s
Dir
18/11:30pm NNW 10 16 - - - - - - - 8.8 1001.7 0.2
18/11:00pm NNW 12 21 - - - - - - - 9.2 1001.2 0.2
18/10:30pm N 12 16 - - - - - - - 9.5 1001.2 0.2
18/10:00pm N 9 15 - - - - - - - 9.6 1001.1 0.2
18/09:30pm NNW 10 16 - - - - - - - 9.7 1001.1 0.2
18/09:00pm NNW 10 17 - - - - - - - 9.8 1000.5 0.2
18/08:30pm NNW 11 21 - - - - - - - 10.2 1000.1 0.2
18/08:00pm NW 13 27 - - - - - - - 10.5 999.6 0.2
18/07:30pm NW 17 27 - - - - - - - 10.7 999.0 0.2
18/07:00pm WNW 17 28 - - - - - - - 11.0 998.4 0.2
18/06:30pm WNW 17 28 - - - - - - - 11.2 997.6 0.2
18/06:00pm NW 19 29 - - - - - - - 11.7 996.7 0.2
18/05:30pm WNW 23 33 - - - - - - - 12.6 995.6 0.2
18/05:22pm NW 24 37 - - - - - - - 12.9 995.4 0.2
18/05:01pm NW 25 44 - - - - - - - 13.7 993.9 0.2
18/05:00pm NW 23 41 - - - - - - - 13.7 993.9 0.2
18/04:30pm NW 23 35 - - - - - - - 14.3 993.1 0.2
18/04:00pm NW 23 39 - - - - - - - 15.0 992.5 0.2
18/03:30pm NW 29 44 - - - - - - - 15.7 991.8 0.2
18/03:25pm NW 23 44 - - - - - - - 15.7 991.7 0.2
18/03:24pm NW 23 42 - - - - - - - 15.7 991.7 0.2
18/03:00pm NW 20 33 - - - - - - - 16.0 991.9 0.2
18/02:30pm NNW 22 34 - - - - - - - 16.4 991.8 0.2
18/02:00pm NW 21 34 - - - - - - - 16.5 991.6 0.2
18/01:30pm NW 21 35 - - - - - - - 16.5 992.1 0.2
18/01:04pm NNW 19 29 - - - - - - - 17.2 992.1 0.2
18/01:00pm NNW 19 28 - - - - - - - 16.9 992.1 0.2
18/12:37pm NW 15 25 - - - - - - - 16.3 992.5 0.2
18/12:30pm NW 12 24 - - - - - - - 16.1 992.6 0.2
18/12:00pm NNW 18 29 - - - - - - - 16.1 993.0 0.0
18/11:36am NNW 18 29 - - - - - - - 16.4 993.4 0.0
18/11:30am NNW 15 27 - - - - - - - 16.4 993.6 0.0
18/11:28am N 13 25 - - - - - - - 16.3 993.6 0.0
18/11:00am NNE 9 15 - - - - - - - 14.7 994.7 0.0
18/10:30am N 10 16 - - - - - - - 15.0 995.5 0.0
18/10:00am N 12 17 - - - - - - - 16.0 995.9 0.0
18/09:30am N 13 23 - - - - - - - 15.9 996.2 0.0
18/09:00am N 11 17 - - - - - - - 14.8 996.7 0.0
18/08:30am N 12 17 - - - - - - - 13.5 997.4 0.0
18/08:00am N 13 19 - - - - - - - 13.7 997.4 0.0
18/07:30am N 10 19 - - - - - - - 13.9 998.2 0.0
18/07:00am N 9 14 - - - - - - - 13.6 998.2 0.0
18/06:30am NNW 9 14 - - - - - - - 13.7 998.2 0.0
18/06:00am NNW 9 15 - - - - - - - 13.6 998.9 0.0
18/05:30am NNW 7 13 - - - - - - - 13.2 999.2 0.0
18/05:00am N 6 9 - - - - - - - 13.1 999.2 0.0
18/04:35am NW 17 27 - - - - - - - 14.0 999.0 0.0
18/04:30am NW 19 27 - - - - - - - 14.1 999.0 0.0
18/04:00am NW 22 33 - - - - - - - 14.2 998.1 0.0
18/03:30am NW 21 33 - - - - - - - 14.1 998.5 0.0
18/03:00am NNW 24 35 - - - - - - - 14.4 999.2 0.0
18/02:30am NNW 26 36 - - - - - - - 14.5 1000.1 0.0
18/02:00am NW 22 35 - - - - - - - 14.4 1000.7 0.0
18/01:30am NW 22 34 - - - - - - - 14.5 1000.7 0.0
18/01:00am NW 25 42 - - - - - - - 14.3 1000.9 0.0
18/12:30am NNW 23 34 - - - - - - - 14.4 1001.9 0.0
18/12:04am NNW 15 26 - - - - - - - 14.2 1002.6 0.0
18/12:00am NNW 14 26 - - - - - - - 14.2 1002.8 0.0
 
Date/Time
EST
Wind Sea
Height
m
Swell Vis
km
Cloud Weather Temp
°C
Press
MSL
hPa
Rain since
9am
mm
Dir  Spd
kts
Gust
kts
Height
m
Period
s
Dir
17/11:30pm NW 13 21 - - - - - - - 13.9 1003.5 0.0
17/11:00pm NNW 13 23 - - - - - - - 13.4 1003.6 0.0
17/10:51pm NNW 15 24 - - - - - - - 13.4 1003.6 0.0
17/10:30pm NW 8 14 - - - - - - - 12.7 1004.5 0.0
17/10:00pm NNW 12 21 - - - - - - - 12.9 1004.7 0.0
17/09:30pm NNW 14 23 - - - - - - - 12.8 1005.1 0.0
17/09:00pm NNW 19 32 - - - - - - - 13.3 1004.9 0.0
17/08:30pm NNW 23 37 - - - - - - - 13.3 1004.5 0.0
17/08:00pm N 25 35 - - - - - - - 13.7 1004.1 0.0
17/07:30pm NNW 18 28 - - - - - - - 13.8 1005.5 0.0
17/07:23pm N 16 26 - - - - - - - 13.8 1005.7 0.0
17/07:00pm N 15 20 - - - - - - - 14.0 1006.4 0.0
17/06:30pm NNW 7 15 - - - - - - - 13.7 1007.0 0.0
17/06:00pm NE 4 5 - - - - - - - 13.1 1007.3 0.0
17/05:30pm NNE 4 6 - - - - - - - 13.5 1007.4 0.0
17/05:00pm N 6 10 - - - - - - - 13.9 1007.7 0.0
17/04:30pm NNW 9 12 - - - - - - - 14.2 1007.8 0.0
17/04:00pm N 10 15 - - - - - - - 14.7 1008.1 0.0
17/03:30pm NNW 12 16 - - - - - - - 15.1 1008.7 0.0
17/03:00pm N 10 14 - - - - - - - 15.6 1009.0 0.0
17/02:30pm NNW 12 16 - - - - - - - 14.8 1009.6 0.0
17/02:00pm N 10 15 - - - - - - - 13.8 1010.0 0.0
17/01:30pm N 7 10 - - - - - - - 13.4 1010.8 0.0
17/01:00pm N 10 15 - - - - - - - 13.2 1011.2 0.0
17/12:30pm N 8 13 - - - - - - - 13.5 1012.0 0.0
17/12:00pm NNW 14 19 - - - - - - - 12.3 1013.2 0.0
17/11:30am NNW 11 16 - - - - - - - 12.0 1013.8 0.0
17/11:00am NNW 4 6 - - - - - - - 10.4 1014.3 0.0
17/10:30am NNW 8 12 - - - - - - - 8.9 1014.8 0.0
17/10:00am NNW 9 12 - - - - - - - 8.0 1015.0 0.0
17/09:30am NNW 8 12 - - - - - - - 8.0 1015.5 0.0
17/09:00am N 7 10 - - - - - - - 7.4 1015.3 0.4
17/08:30am N 5 7 - - - - - - - 7.1 1015.7 0.4
17/08:00am NNW 9 12 - - - - - - - 7.0 1015.7 0.4
17/07:30am NW 7 11 - - - - - - - 6.9 1015.9 0.4
17/07:00am NNW 7 9 - - - - - - - 6.9 1015.8 0.4
17/06:30am NW 6 8 - - - - - - - 6.8 1015.7 0.4
17/06:00am NNW 6 8 - - - - - - - 7.0 1015.7 0.4
17/05:30am NNW 5 7 - - - - - - - 7.3 1015.7 0.4
17/05:00am N 5 6 - - - - - - - 8.0 1015.5 0.4
17/04:30am N 2 5 - - - - - - - 8.5 1015.3 0.4
17/04:00am N 3 4 - - - - - - - 8.8 1015.1 0.4
17/03:30am NNW 3 5 - - - - - - - 8.8 1015.0 0.4
17/03:00am NE 4 5 - - - - - - - 8.8 1014.9 0.4
17/02:30am WSW 3 4 - - - - - - - 8.7 1015.0 0.4
17/02:00am WSW 4 5 - - - - - - - 8.5 1015.1 0.4
17/01:30am NW 1 4 - - - - - - - 8.4 1014.9 0.4
17/01:00am WSW 3 4 - - - - - - - 8.3 1015.1 0.4
17/12:30am WNW 3 5 - - - - - - - 8.3 1015.0 0.4
17/12:00am WSW 1 3 - - - - - - - 8.3 1015.0 0.4
 
Date/Time
EST
Wind Sea
Height
m
Swell Vis
km
Cloud Weather Temp
°C
Press
MSL
hPa
Rain since
9am
mm
Dir  Spd
kts
Gust
kts
Height
m
Period
s
Dir
16/11:30pm WNW 4 5 - - - - - - - 8.1 1015.1 0.4
16/11:00pm NW 4 5 - - - - - - - 8.1 1014.9 0.4
16/10:30pm W 3 4 - - - - - - - 8.7 1014.9 0.4
16/10:00pm W 4 6 - - - - - - - 9.1 1014.9 0.4
16/09:30pm WNW 2 4 - - - - - - - 9.2 1014.7 0.4
16/09:00pm SW 4 7 - - - - - - - 9.6 1014.6 0.4
16/08:30pm SE 3 5 - - - - - - - 10.2 1014.0 0.4
16/08:00pm SSE 1 4 - - - - - - - 10.6 1013.8 0.4
16/07:30pm S 7 11 - - - - - - - 10.8 1013.3 0.4
16/07:00pm S 9 14 - - - - - - - 11.1 1012.7 0.4
16/06:30pm SSE 7 11 - - - - - - - 11.4 1011.8 0.4
16/06:00pm SE 7 11 - - - - - - - 11.5 1010.9 0.4
16/05:30pm S 9 12 - - - - - - - 11.9 1010.7 0.4
16/05:00pm S 8 13 - - - - - - - 12.3 1010.0 0.4
16/04:30pm SE 4 6 - - - - - - - 12.8 1009.7 0.4
16/04:00pm SE 5 10 - - - - - - - 12.9 1009.1 0.4
16/03:30pm SE 10 16 - - - - - - - 12.9 1008.7 0.4
16/03:00pm ESE 9 11 - - - - - - - 12.8 1008.2 0.4
16/02:30pm S 10 16 - - - - - - - 13.9 1007.8 0.4
16/02:00pm SW 15 22 - - - - - - - 14.4 1007.2 0.4
16/01:30pm SW 9 15 - - - - - - - 14.7 1006.9 0.4
16/01:00pm WSW 7 12 - - - - - - - 14.5 1006.8 0.4
16/12:30pm SSW 11 17 - - - - - - - 13.9 1006.5 0.4
16/12:00pm S 9 14 - - - - - - - 13.6 1006.5 0.2
16/11:30am SW 9 16 - - - - - - - 13.8 1006.2 0.2
16/11:00am SW 8 15 - - - - - - - 14.2 1006.1 0.2
16/10:30am ENE 4 6 - - - - - - - 13.8 1005.8 0.2
16/10:00am N 5 6 - - - - - - - 12.3 1005.7 0.2
16/09:30am N 2 5 - - - - - - - 10.5 1005.5 0.2

Other formats

Comma delimited format used in spreadsheet applications
http://www.bom.gov.au/fwo/IDT60701/IDT60701.94970.axf

JavaScript Object Notation format (JSON) in row-major order
http://www.bom.gov.au/fwo/IDT60701/IDT60701.94970.json

Data quality

Most of these data are generated automatically and are frequently updated. Quality checks on data are not normally performed. It is possible for incorrect values to appear. Refer to information at About Latest Weather Observations and please check the disclaimer before using these data.